Methoni, Greece
Current Conditions -  °F | °C
As of 3:50 AM on Tuesday 27 Jan 2015 (Local Time) from LGKL Reporting Station
Broken Clouds Broken Clouds  
Wind Chill:   Ceiling: 8000
Heat Index:   Visibility: 6mi
Dew Point:   Wind: 0mph
Humidity: 93%   Direction: NA
Pressure: 29.97"   Gusts: NA
Location:  36.82°N, 21.7°E
Report Text: LGKL 270050Z 00000KT 9999 SCT025 BKN080 08/07 Q1015
Loading
Personal Weather Stations






























Interactive Weather Map New forecast layout! Learn more

10-Day Weather Forecast

Advertisements
Track Severe Weather on mobile